ELNO2: N. Canadian River, El Reno, OK

Data processed at Sat Aug 19 2017 23:09


All information presented herein is the property of the government of the United States of America and may be revised or deleted at any time without prior notice.
Dissemination of this information without the expressed written consent of the Public Affairs Office, Tulsa District U.S. Army Corps of Engineers is strictly prohibited.
These data are gathered electronically and, as presented, have not undergone any form of quality control. These data are not guaranteed to be valid or correct.
Go to home page.
Go to station list.

Upstream stations:

Downstream station:
Previous Day
Next Day
Current Day
    
SHEF ID:       ELNO2     North Canadian River near El Ren
STATION TYPE:  

               PRECIP     STAGE  STAGE(2)  RIV-FLOW  WTR-TEMP   CONDUCT  BAT-LOAD
                   in        ft        ft       cfs         F   umho/cm      volt
              Ccp-Rev   Ccp-Rev   Ccp-Rev   Ccp-Rev   Ccp-Rev   Ccp-Rev   Ccp-Rev
(US/Central)
08/17 00:00      0.00      4.21      ----        97     82.83       429     12.73
08/17 01:00      0.00      4.22      ----        98     82.65       430     12.73
08/17 02:00      0.00      4.23      ----        99     82.44       431     12.73
08/17 03:00      0.00      4.22      ----        98     82.15       433     12.73
08/17 04:00      0.00      4.18      ----        93     81.86       433     12.65
08/17 05:00      0.00      4.14      ----        88     81.55       433     12.65
08/17 06:00      0.00      4.13      ----        87     81.23       432     12.65
08/17 07:00      0.00      4.13      ----        87     80.94       429     12.65
08/17 08:00      0.00      4.12      ----        86     80.67       428     12.65
08/17 09:00      0.00      4.10      ----        84     80.38       427     13.44
08/17 10:00      0.00      4.09      ----        83     80.13       427     13.68
08/17 11:00      0.00      4.08      ----        82     79.93       428      ----
08/17 12:00      0.00      4.06      ----        80     79.84       428     13.76
08/17 13:00      0.00      4.06      ----        80     82.92       630     13.76
08/17 14:00      0.00      4.05      ----        79      ----      ----     13.68
08/17 15:00      0.00      4.05      ----        79     86.47       907     13.68
08/17 16:00      0.00      4.05      ----        79     87.98       925     13.68
08/17 17:00      0.00      4.04      ----        78     88.72       933     13.60
08/17 18:00      0.00      4.04      ----        78     88.99       939     13.37
08/17 19:00      0.00      4.03      ----        77     88.52       939     13.29
08/17 20:00      0.00      4.01      ----        74     87.73       942     12.97
08/17 21:00      0.00      4.00      ----        73     86.86       955     12.81
08/17 22:00      0.00      3.99      ----        72     85.89       963     12.81
08/17 23:00      0.00      3.99      ----        72     85.12       968     12.81